sensor_id;sensor_type;location;lat;lon;timestamp;P1;durP1;ratioP1;P2;durP2;ratioP2
20713;SDS011;10518;50.742;4.226;2023-07-29T00:01:30;0.70;;;0.60;;
20713;SDS011;10518;50.742;4.226;2023-07-29T00:03:56;0.57;;;0.57;;
20713;SDS011;10518;50.742;4.226;2023-07-29T00:06:21;0.80;;;0.80;;
20713;SDS011;10518;50.742;4.226;2023-07-29T00:08:47;3.05;;;1.00;;
20713;SDS011;10518;50.742;4.226;2023-07-29T00:11:12;0.77;;;0.70;;
20713;SDS011;10518;50.742;4.226;2023-07-29T00:13:38;0.50;;;0.50;;
20713;SDS011;10518;50.742;4.226;2023-07-29T00:16:03;0.77;;;0.70;;
20713;SDS011;10518;50.742;4.226;2023-07-29T00:18:29;0.90;;;0.80;;
20713;SDS011;10518;50.742;4.226;2023-07-29T00:20:55;0.77;;;0.77;;
20713;SDS011;10518;50.742;4.226;2023-07-29T00:23:20;0.90;;;0.80;;
20713;SDS011;10518;50.742;4.226;2023-07-29T00:25:46;1.05;;;0.60;;
20713;SDS011;10518;50.742;4.226;2023-07-29T00:28:12;1.75;;;0.73;;
20713;SDS011;10518;50.742;4.226;2023-07-29T00:30:38;1.65;;;0.60;;
20713;SDS011;10518;50.742;4.226;2023-07-29T00:33:03;1.45;;;0.75;;
20713;SDS011;10518;50.742;4.226;2023-07-29T00:35:29;0.60;;;0.50;;
20713;SDS011;10518;50.742;4.226;2023-07-29T00:37:54;1.20;;;1.10;;
20713;SDS011;10518;50.742;4.226;2023-07-29T00:40:20;1.05;;;0.75;;
20713;SDS011;10518;50.742;4.226;2023-07-29T00:42:47;0.88;;;0.68;;
20713;SDS011;10518;50.742;4.226;2023-07-29T00:45:13;1.65;;;1.10;;
20713;SDS011;10518;50.742;4.226;2023-07-29T00:47:39;0.85;;;0.70;;
20713;SDS011;10518;50.742;4.226;2023-07-29T00:50:06;1.65;;;0.77;;
20713;SDS011;10518;50.742;4.226;2023-07-29T00:52:33;2.60;;;0.80;;
20713;SDS011;10518;50.742;4.226;2023-07-29T00:54:59;1.02;;;0.73;;
20713;SDS011;10518;50.742;4.226;2023-07-29T00:57:24;0.60;;;0.60;;
20713;SDS011;10518;50.742;4.226;2023-07-29T00:59:51;1.10;;;0.60;;
20713;SDS011;10518;50.742;4.226;2023-07-29T01:02:17;2.45;;;0.80;;
20713;SDS011;10518;50.742;4.226;2023-07-29T01:04:43;2.35;;;0.57;;
20713;SDS011;10518;50.742;4.226;2023-07-29T01:07:19;2.42;;;0.65;;
20713;SDS011;10518;50.742;4.226;2023-07-29T01:10:00;1.73;;;1.10;;
20713;SDS011;10518;50.742;4.226;2023-07-29T01:16:10;1.45;;;0.90;;
20713;SDS011;10518;50.742;4.226;2023-07-29T01:18:45;1.08;;;0.80;;
20713;SDS011;10518;50.742;4.226;2023-07-29T01:21:13;0.88;;;0.70;;
20713;SDS011;10518;50.742;4.226;2023-07-29T01:23:39;0.40;;;0.40;;
20713;SDS011;10518;50.742;4.226;2023-07-29T01:26:04;1.05;;;0.95;;
20713;SDS011;10518;50.742;4.226;2023-07-29T01:28:30;1.00;;;0.90;;
20713;SDS011;10518;50.742;4.226;2023-07-29T01:33:59;2.03;;;0.90;;
20713;SDS011;10518;50.742;4.226;2023-07-29T01:36:31;1.13;;;0.70;;
20713;SDS011;10518;50.742;4.226;2023-07-29T01:38:59;1.27;;;1.17;;
20713;SDS011;10518;50.742;4.226;2023-07-29T01:41:28;1.02;;;0.60;;
20713;SDS011;10518;50.742;4.226;2023-07-29T01:43:54;3.00;;;0.80;;
20713;SDS011;10518;50.742;4.226;2023-07-29T01:46:21;1.45;;;0.65;;
20713;SDS011;10518;50.742;4.226;2023-07-29T01:48:47;3.63;;;0.60;;
20713;SDS011;10518;50.742;4.226;2023-07-29T01:51:12;1.40;;;0.80;;
20713;SDS011;10518;50.742;4.226;2023-07-29T01:53:39;1.02;;;0.93;;
20713;SDS011;10518;50.742;4.226;2023-07-29T01:56:04;2.15;;;0.85;;
20713;SDS011;10518;50.742;4.226;2023-07-29T01:58:30;1.00;;;0.73;;
20713;SDS011;10518;50.742;4.226;2023-07-29T02:00:55;6.00;;;0.82;;
20713;SDS011;10518;50.742;4.226;2023-07-29T02:03:21;2.33;;;0.90;;
20713;SDS011;10518;50.742;4.226;2023-07-29T02:05:46;1.83;;;1.13;;
20713;SDS011;10518;50.742;4.226;2023-07-29T02:08:12;1.17;;;0.95;;
20713;SDS011;10518;50.742;4.226;2023-07-29T02:10:39;2.38;;;0.85;;
20713;SDS011;10518;50.742;4.226;2023-07-29T02:13:04;0.88;;;0.80;;
20713;SDS011;10518;50.742;4.226;2023-07-29T02:15:30;0.70;;;0.70;;
20713;SDS011;10518;50.742;4.226;2023-07-29T02:17:55;2.00;;;0.70;;
20713;SDS011;10518;50.742;4.226;2023-07-29T02:20:21;1.52;;;1.00;;
20713;SDS011;10518;50.742;4.226;2023-07-29T02:22:46;2.65;;;0.93;;
20713;SDS011;10518;50.742;4.226;2023-07-29T02:25:13;0.93;;;0.60;;
20713;SDS011;10518;50.742;4.226;2023-07-29T02:27:39;1.80;;;0.90;;
20713;SDS011;10518;50.742;4.226;2023-07-29T02:30:05;0.60;;;0.60;;
20713;SDS011;10518;50.742;4.226;2023-07-29T02:32:31;2.00;;;0.93;;
20713;SDS011;10518;50.742;4.226;2023-07-29T02:34:57;1.67;;;1.08;;
20713;SDS011;10518;50.742;4.226;2023-07-29T02:37:22;0.80;;;0.80;;
20713;SDS011;10518;50.742;4.226;2023-07-29T02:39:48;0.85;;;0.70;;
20713;SDS011;10518;50.742;4.226;2023-07-29T02:42:13;1.30;;;1.20;;
20713;SDS011;10518;50.742;4.226;2023-07-29T02:44:39;1.85;;;0.93;;
20713;SDS011;10518;50.742;4.226;2023-07-29T02:47:05;1.30;;;0.60;;
20713;SDS011;10518;50.742;4.226;2023-07-29T02:49:31;3.63;;;1.13;;
20713;SDS011;10518;50.742;4.226;2023-07-29T02:51:56;1.52;;;0.90;;
20713;SDS011;10518;50.742;4.226;2023-07-29T02:54:22;0.90;;;0.70;;
20713;SDS011;10518;50.742;4.226;2023-07-29T02:56:47;1.40;;;0.77;;
20713;SDS011;10518;50.742;4.226;2023-07-29T02:59:14;0.77;;;0.77;;
20713;SDS011;10518;50.742;4.226;2023-07-29T03:01:40;0.88;;;0.70;;
20713;SDS011;10518;50.742;4.226;2023-07-29T03:04:05;1.52;;;0.88;;
20713;SDS011;10518;50.742;4.226;2023-07-29T03:06:31;1.33;;;0.80;;
20713;SDS011;10518;50.742;4.226;2023-07-29T03:08:56;1.05;;;0.90;;
20713;SDS011;10518;50.742;4.226;2023-07-29T03:11:22;0.80;;;0.80;;
20713;SDS011;10518;50.742;4.226;2023-07-29T03:13:47;0.75;;;0.60;;
20713;SDS011;10518;50.742;4.226;2023-07-29T03:16:14;1.33;;;0.90;;
20713;SDS011;10518;50.742;4.226;2023-07-29T03:18:41;0.65;;;0.60;;
20713;SDS011;10518;50.742;4.226;2023-07-29T03:21:07;1.30;;;0.68;;
20713;SDS011;10518;50.742;4.226;2023-07-29T03:23:34;1.70;;;0.85;;
20713;SDS011;10518;50.742;4.226;2023-07-29T03:26:00;0.80;;;0.63;;
20713;SDS011;10518;50.742;4.226;2023-07-29T03:28:29;3.33;;;1.02;;
20713;SDS011;10518;50.742;4.226;2023-07-29T03:30:57;0.63;;;0.60;;
20713;SDS011;10518;50.742;4.226;2023-07-29T03:33:24;1.15;;;0.93;;
20713;SDS011;10518;50.742;4.226;2023-07-29T03:35:51;1.17;;;0.70;;
20713;SDS011;10518;50.742;4.226;2023-07-29T03:38:17;0.77;;;0.68;;
20713;SDS011;10518;50.742;4.226;2023-07-29T03:40:43;0.77;;;0.70;;
20713;SDS011;10518;50.742;4.226;2023-07-29T03:43:08;2.00;;;1.27;;
20713;SDS011;10518;50.742;4.226;2023-07-29T03:45:34;1.27;;;0.77;;
20713;SDS011;10518;50.742;4.226;2023-07-29T03:48:01;1.05;;;0.73;;
20713;SDS011;10518;50.742;4.226;2023-07-29T03:50:28;1.10;;;1.00;;
20713;SDS011;10518;50.742;4.226;2023-07-29T03:52:54;1.52;;;0.80;;
20713;SDS011;10518;50.742;4.226;2023-07-29T03:55:20;0.73;;;0.70;;
20713;SDS011;10518;50.742;4.226;2023-07-29T03:57:46;1.05;;;0.90;;
20713;SDS011;10518;50.742;4.226;2023-07-29T04:00:11;7.18;;;0.80;;
20713;SDS011;10518;50.742;4.226;2023-07-29T04:02:38;1.50;;;0.80;;
20713;SDS011;10518;50.742;4.226;2023-07-29T04:05:04;1.35;;;0.85;;
20713;SDS011;10518;50.742;4.226;2023-07-29T04:07:31;2.20;;;1.60;;
20713;SDS011;10518;50.742;4.226;2023-07-29T04:09:57;1.42;;;0.90;;
20713;SDS011;10518;50.742;4.226;2023-07-29T04:12:23;1.23;;;0.70;;
20713;SDS011;10518;50.742;4.226;2023-07-29T04:14:48;1.48;;;0.85;;
20713;SDS011;10518;50.742;4.226;2023-07-29T04:17:14;0.82;;;0.82;;
20713;SDS011;10518;50.742;4.226;2023-07-29T04:19:40;1.00;;;0.90;;
20713;SDS011;10518;50.742;4.226;2023-07-29T04:22:05;0.75;;;0.75;;
20713;SDS011;10518;50.742;4.226;2023-07-29T04:24:31;0.50;;;0.47;;
20713;SDS011;10518;50.742;4.226;2023-07-29T04:26:57;2.03;;;1.17;;
20713;SDS011;10518;50.742;4.226;2023-07-29T04:29:22;2.20;;;1.08;;
20713;SDS011;10518;50.742;4.226;2023-07-29T04:31:49;0.70;;;0.70;;
20713;SDS011;10518;50.742;4.226;2023-07-29T04:34:15;1.60;;;0.90;;
20713;SDS011;10518;50.742;4.226;2023-07-29T04:36:42;1.70;;;0.80;;
20713;SDS011;10518;50.742;4.226;2023-07-29T04:39:07;3.05;;;0.82;;
20713;SDS011;10518;50.742;4.226;2023-07-29T04:41:33;2.97;;;1.05;;
20713;SDS011;10518;50.742;4.226;2023-07-29T04:43:58;1.25;;;0.88;;
20713;SDS011;10518;50.742;4.226;2023-07-29T04:46:24;2.30;;;0.88;;
20713;SDS011;10518;50.742;4.226;2023-07-29T04:48:49;1.13;;;0.98;;
20713;SDS011;10518;50.742;4.226;2023-07-29T04:51:15;1.20;;;0.80;;
20713;SDS011;10518;50.742;4.226;2023-07-29T04:53:40;1.00;;;0.90;;
20713;SDS011;10518;50.742;4.226;2023-07-29T04:56:06;3.03;;;0.95;;
20713;SDS011;10518;50.742;4.226;2023-07-29T04:58:31;1.05;;;0.73;;
20713;SDS011;10518;50.742;4.226;2023-07-29T05:01:00;1.38;;;1.10;;
20713;SDS011;10518;50.742;4.226;2023-07-29T05:03:26;3.30;;;0.88;;
20713;SDS011;10518;50.742;4.226;2023-07-29T05:05:51;1.60;;;0.77;;
20713;SDS011;10518;50.742;4.226;2023-07-29T05:08:19;1.35;;;0.88;;
20713;SDS011;10518;50.742;4.226;2023-07-29T05:10:48;1.45;;;0.90;;
20713;SDS011;10518;50.742;4.226;2023-07-29T05:13:15;1.00;;;0.60;;
20713;SDS011;10518;50.742;4.226;2023-07-29T05:15:40;1.10;;;0.77;;
20713;SDS011;10518;50.742;4.226;2023-07-29T05:18:06;0.98;;;0.73;;
20713;SDS011;10518;50.742;4.226;2023-07-29T05:20:32;1.02;;;0.77;;
20713;SDS011;10518;50.742;4.226;2023-07-29T05:22:57;3.53;;;0.73;;
20713;SDS011;10518;50.742;4.226;2023-07-29T05:25:23;0.60;;;0.60;;
20713;SDS011;10518;50.742;4.226;2023-07-29T05:27:48;0.80;;;0.52;;
20713;SDS011;10518;50.742;4.226;2023-07-29T05:30:14;0.77;;;0.77;;
20713;SDS011;10518;50.742;4.226;2023-07-29T05:32:39;0.93;;;0.60;;
20713;SDS011;10518;50.742;4.226;2023-07-29T05:35:05;0.60;;;0.60;;
20713;SDS011;10518;50.742;4.226;2023-07-29T05:37:31;2.17;;;0.85;;
20713;SDS011;10518;50.742;4.226;2023-07-29T05:39:57;2.35;;;0.70;;
20713;SDS011;10518;50.742;4.226;2023-07-29T05:42:22;0.93;;;0.70;;
20713;SDS011;10518;50.742;4.226;2023-07-29T05:44:48;1.00;;;0.88;;
20713;SDS011;10518;50.742;4.226;2023-07-29T05:47:13;0.90;;;0.82;;
20713;SDS011;10518;50.742;4.226;2023-07-29T05:49:39;4.22;;;0.75;;
20713;SDS011;10518;50.742;4.226;2023-07-29T05:52:04;1.30;;;0.75;;
20713;SDS011;10518;50.742;4.226;2023-07-29T05:54:30;0.60;;;0.60;;
20713;SDS011;10518;50.742;4.226;2023-07-29T05:56:56;5.13;;;0.65;;
20713;SDS011;10518;50.742;4.226;2023-07-29T05:59:21;1.42;;;0.55;;
20713;SDS011;10518;50.742;4.226;2023-07-29T06:01:47;0.70;;;0.60;;
20713;SDS011;10518;50.742;4.226;2023-07-29T06:04:12;1.52;;;0.73;;
20713;SDS011;10518;50.742;4.226;2023-07-29T06:06:38;0.70;;;0.45;;
20713;SDS011;10518;50.742;4.226;2023-07-29T06:09:04;0.70;;;0.60;;
20713;SDS011;10518;50.742;4.226;2023-07-29T06:11:29;1.20;;;0.70;;
20713;SDS011;10518;50.742;4.226;2023-07-29T06:13:55;0.68;;;0.68;;
20713;SDS011;10518;50.742;4.226;2023-07-29T06:16:20;0.60;;;0.60;;
20713;SDS011;10518;50.742;4.226;2023-07-29T06:18:46;0.70;;;0.70;;
20713;SDS011;10518;50.742;4.226;2023-07-29T06:21:11;1.30;;;0.90;;
20713;SDS011;10518;50.742;4.226;2023-07-29T06:23:42;1.05;;;0.70;;
20713;SDS011;10518;50.742;4.226;2023-07-29T06:26:08;0.60;;;0.57;;
20713;SDS011;10518;50.742;4.226;2023-07-29T06:28:33;1.02;;;0.70;;
20713;SDS011;10518;50.742;4.226;2023-07-29T06:30:59;1.08;;;0.60;;
20713;SDS011;10518;50.742;4.226;2023-07-29T06:33:25;1.20;;;0.60;;
20713;SDS011;10518;50.742;4.226;2023-07-29T06:35:50;1.70;;;0.77;;
20713;SDS011;10518;50.742;4.226;2023-07-29T06:38:16;0.60;;;0.60;;
20713;SDS011;10518;50.742;4.226;2023-07-29T06:40:46;0.63;;;0.50;;
20713;SDS011;10518;50.742;4.226;2023-07-29T06:43:12;1.02;;;0.73;;
20713;SDS011;10518;50.742;4.226;2023-07-29T06:45:38;0.50;;;0.50;;
20713;SDS011;10518;50.742;4.226;2023-07-29T06:48:03;0.80;;;0.60;;
20713;SDS011;10518;50.742;4.226;2023-07-29T06:50:29;0.50;;;0.50;;
20713;SDS011;10518;50.742;4.226;2023-07-29T06:52:55;1.90;;;1.10;;
20713;SDS011;10518;50.742;4.226;2023-07-29T06:55:20;0.75;;;0.73;;
20713;SDS011;10518;50.742;4.226;2023-07-29T06:57:46;0.63;;;0.50;;
20713;SDS011;10518;50.742;4.226;2023-07-29T07:00:11;0.60;;;0.60;;
20713;SDS011;10518;50.742;4.226;2023-07-29T07:02:37;0.77;;;0.60;;
20713;SDS011;10518;50.742;4.226;2023-07-29T07:05:02;0.57;;;0.50;;
20713;SDS011;10518;50.742;4.226;2023-07-29T07:07:28;0.43;;;0.43;;
20713;SDS011;10518;50.742;4.226;2023-07-29T07:09:54;0.52;;;0.52;;
20713;SDS011;10518;50.742;4.226;2023-07-29T07:12:19;1.65;;;0.60;;
20713;SDS011;10518;50.742;4.226;2023-07-29T07:14:45;0.47;;;0.43;;
20713;SDS011;10518;50.742;4.226;2023-07-29T07:17:10;0.77;;;0.73;;
20713;SDS011;10518;50.742;4.226;2023-07-29T07:19:36;0.70;;;0.50;;
20713;SDS011;10518;50.742;4.226;2023-07-29T07:22:02;0.50;;;0.50;;
20713;SDS011;10518;50.742;4.226;2023-07-29T07:24:28;0.73;;;0.70;;
20713;SDS011;10518;50.742;4.226;2023-07-29T07:26:53;2.85;;;0.60;;
20713;SDS011;10518;50.742;4.226;2023-07-29T07:29:19;0.50;;;0.50;;
20713;SDS011;10518;50.742;4.226;2023-07-29T07:31:49;0.68;;;0.50;;
20713;SDS011;10518;50.742;4.226;2023-07-29T07:34:17;1.10;;;0.68;;
20713;SDS011;10518;50.742;4.226;2023-07-29T07:36:43;0.82;;;0.73;;
20713;SDS011;10518;50.742;4.226;2023-07-29T07:39:09;0.50;;;0.50;;
20713;SDS011;10518;50.742;4.226;2023-07-29T07:41:34;0.60;;;0.60;;
20713;SDS011;10518;50.742;4.226;2023-07-29T07:44:00;0.63;;;0.60;;
20713;SDS011;10518;50.742;4.226;2023-07-29T07:46:25;0.70;;;0.70;;
20713;SDS011;10518;50.742;4.226;2023-07-29T07:48:51;0.57;;;0.52;;
20713;SDS011;10518;50.742;4.226;2023-07-29T07:51:16;0.63;;;0.60;;
20713;SDS011;10518;50.742;4.226;2023-07-29T07:53:42;0.75;;;0.65;;
20713;SDS011;10518;50.742;4.226;2023-07-29T07:56:07;0.82;;;0.60;;
20713;SDS011;10518;50.742;4.226;2023-07-29T07:58:33;0.70;;;0.68;;
20713;SDS011;10518;50.742;4.226;2023-07-29T08:01:03;0.65;;;0.63;;
20713;SDS011;10518;50.742;4.226;2023-07-29T08:03:30;2.22;;;0.50;;
20713;SDS011;10518;50.742;4.226;2023-07-29T08:05:55;0.60;;;0.40;;
20713;SDS011;10518;50.742;4.226;2023-07-29T08:08:21;3.45;;;0.70;;
20713;SDS011;10518;50.742;4.226;2023-07-29T08:10:47;0.95;;;0.57;;
20713;SDS011;10518;50.742;4.226;2023-07-29T08:13:12;0.57;;;0.45;;
20713;SDS011;10518;50.742;4.226;2023-07-29T08:15:38;0.45;;;0.43;;
20713;SDS011;10518;50.742;4.226;2023-07-29T08:18:03;0.52;;;0.50;;
20713;SDS011;10518;50.742;4.226;2023-07-29T08:20:29;1.45;;;0.63;;
20713;SDS011;10518;50.742;4.226;2023-07-29T08:22:54;1.48;;;0.65;;
20713;SDS011;10518;50.742;4.226;2023-07-29T08:25:20;0.40;;;0.40;;
20713;SDS011;10518;50.742;4.226;2023-07-29T08:27:46;0.60;;;0.60;;
20713;SDS011;10518;50.742;4.226;2023-07-29T08:30:11;1.58;;;0.38;;
20713;SDS011;10518;50.742;4.226;2023-07-29T08:32:37;0.65;;;0.50;;
20713;SDS011;10518;50.742;4.226;2023-07-29T08:35:02;1.08;;;0.65;;
20713;SDS011;10518;50.742;4.226;2023-07-29T08:37:28;0.50;;;0.50;;
20713;SDS011;10518;50.742;4.226;2023-07-29T08:39:54;0.52;;;0.50;;
20713;SDS011;10518;50.742;4.226;2023-07-29T08:42:20;1.02;;;0.70;;
20713;SDS011;10518;50.742;4.226;2023-07-29T08:44:49;0.40;;;0.40;;
20713;SDS011;10518;50.742;4.226;2023-07-29T08:47:16;0.73;;;0.55;;
20713;SDS011;10518;50.742;4.226;2023-07-29T08:49:43;1.20;;;0.77;;
20713;SDS011;10518;50.742;4.226;2023-07-29T08:52:11;1.40;;;0.80;;
20713;SDS011;10518;50.742;4.226;2023-07-29T08:54:38;0.60;;;0.60;;
20713;SDS011;10518;50.742;4.226;2023-07-29T08:57:04;0.40;;;0.40;;
20713;SDS011;10518;50.742;4.226;2023-07-29T08:59:31;0.50;;;0.50;;
20713;SDS011;10518;50.742;4.226;2023-07-29T09:01:57;0.47;;;0.47;;
20713;SDS011;10518;50.742;4.226;2023-07-29T09:04:24;0.77;;;0.60;;
20713;SDS011;10518;50.742;4.226;2023-07-29T09:06:50;1.77;;;0.57;;
20713;SDS011;10518;50.742;4.226;2023-07-29T09:09:16;0.60;;;0.60;;
20713;SDS011;10518;50.742;4.226;2023-07-29T09:11:41;1.60;;;0.73;;
20713;SDS011;10518;50.742;4.226;2023-07-29T09:14:08;0.70;;;0.70;;
20713;SDS011;10518;50.742;4.226;2023-07-29T09:16:34;1.15;;;0.50;;
20713;SDS011;10518;50.742;4.226;2023-07-29T09:19:01;0.85;;;0.68;;
20713;SDS011;10518;50.742;4.226;2023-07-29T09:21:28;0.52;;;0.50;;
20713;SDS011;10518;50.742;4.226;2023-07-29T09:23:54;1.70;;;0.60;;
20713;SDS011;10518;50.742;4.226;2023-07-29T09:26:24;0.45;;;0.40;;
20713;SDS011;10518;50.742;4.226;2023-07-29T09:28:55;0.75;;;0.60;;
20713;SDS011;10518;50.742;4.226;2023-07-29T09:31:22;0.60;;;0.60;;
20713;SDS011;10518;50.742;4.226;2023-07-29T09:33:48;0.80;;;0.55;;
20713;SDS011;10518;50.742;4.226;2023-07-29T09:36:14;0.82;;;0.60;;
20713;SDS011;10518;50.742;4.226;2023-07-29T09:38:40;0.90;;;0.57;;
20713;SDS011;10518;50.742;4.226;2023-07-29T09:41:06;0.80;;;0.68;;
20713;SDS011;10518;50.742;4.226;2023-07-29T09:43:33;1.55;;;0.77;;
20713;SDS011;10518;50.742;4.226;2023-07-29T09:46:00;0.77;;;0.60;;
20713;SDS011;10518;50.742;4.226;2023-07-29T09:48:27;0.90;;;0.88;;
20713;SDS011;10518;50.742;4.226;2023-07-29T09:50:54;0.75;;;0.65;;
20713;SDS011;10518;50.742;4.226;2023-07-29T09:53:20;0.93;;;0.80;;
20713;SDS011;10518;50.742;4.226;2023-07-29T09:55:49;0.50;;;0.50;;
20713;SDS011;10518;50.742;4.226;2023-07-29T09:58:16;0.70;;;0.55;;
20713;SDS011;10518;50.742;4.226;2023-07-29T10:00:50;2.28;;;1.02;;
20713;SDS011;10518;50.742;4.226;2023-07-29T10:03:17;2.33;;;0.63;;
20713;SDS011;10518;50.742;4.226;2023-07-29T10:05:45;1.40;;;1.05;;
20713;SDS011;10518;50.742;4.226;2023-07-29T10:08:11;2.08;;;1.25;;
20713;SDS011;10518;50.742;4.226;2023-07-29T10:10:38;1.50;;;1.25;;
20713;SDS011;10518;50.742;4.226;2023-07-29T10:13:06;1.45;;;1.23;;
20713;SDS011;10518;50.742;4.226;2023-07-29T10:15:32;2.95;;;1.55;;
20713;SDS011;10518;50.742;4.226;2023-07-29T10:17:58;1.48;;;1.10;;
20713;SDS011;10518;50.742;4.226;2023-07-29T10:20:25;1.10;;;0.95;;
20713;SDS011;10518;50.742;4.226;2023-07-29T10:22:51;2.05;;;1.02;;
20713;SDS011;10518;50.742;4.226;2023-07-29T10:25:24;0.93;;;0.77;;
20713;SDS011;10518;50.742;4.226;2023-07-29T10:28:04;0.70;;;0.70;;
20713;SDS011;10518;50.742;4.226;2023-07-29T10:30:31;2.40;;;1.10;;
20713;SDS011;10518;50.742;4.226;2023-07-29T10:33:03;1.33;;;1.15;;
20713;SDS011;10518;50.742;4.226;2023-07-29T10:35:34;1.40;;;1.00;;
20713;SDS011;10518;50.742;4.226;2023-07-29T10:38:00;1.38;;;1.17;;
20713;SDS011;10518;50.742;4.226;2023-07-29T10:40:27;7.50;;;1.35;;
20713;SDS011;10518;50.742;4.226;2023-07-29T10:43:12;1.95;;;1.20;;
20713;SDS011;10518;50.742;4.226;2023-07-29T10:45:43;1.95;;;1.20;;
20713;SDS011;10518;50.742;4.226;2023-07-29T10:48:12;1.52;;;1.40;;
20713;SDS011;10518;50.742;4.226;2023-07-29T10:53:58;1.63;;;1.30;;
20713;SDS011;10518;50.742;4.226;2023-07-29T10:56:34;1.70;;;1.30;;
20713;SDS011;10518;50.742;4.226;2023-07-29T11:01:43;1.60;;;1.40;;
20713;SDS011;10518;50.742;4.226;2023-07-29T11:20:15;1.58;;;1.23;;
20713;SDS011;10518;50.742;4.226;2023-07-29T11:22:41;1.20;;;1.10;;
20713;SDS011;10518;50.742;4.226;2023-07-29T11:25:08;3.97;;;1.20;;
20713;SDS011;10518;50.742;4.226;2023-07-29T11:27:35;1.15;;;1.02;;
20713;SDS011;10518;50.742;4.226;2023-07-29T11:30:02;1.42;;;1.33;;
20713;SDS011;10518;50.742;4.226;2023-07-29T11:32:30;3.75;;;1.60;;
20713;SDS011;10518;50.742;4.226;2023-07-29T11:35:00;1.95;;;1.40;;
20713;SDS011;10518;50.742;4.226;2023-07-29T11:37:29;2.00;;;1.40;;
20713;SDS011;10518;50.742;4.226;2023-07-29T11:39:55;1.30;;;1.20;;
20713;SDS011;10518;50.742;4.226;2023-07-29T11:42:21;1.42;;;1.20;;
20713;SDS011;10518;50.742;4.226;2023-07-29T11:44:46;1.42;;;0.93;;
20713;SDS011;10518;50.742;4.226;2023-07-29T11:47:12;1.15;;;1.05;;
20713;SDS011;10518;50.742;4.226;2023-07-29T11:49:39;0.90;;;0.80;;
20713;SDS011;10518;50.742;4.226;2023-07-29T11:52:06;0.85;;;0.82;;
20713;SDS011;10518;50.742;4.226;2023-07-29T11:54:34;1.17;;;1.05;;
20713;SDS011;10518;50.742;4.226;2023-07-29T11:57:06;1.05;;;0.70;;
20713;SDS011;10518;50.742;4.226;2023-07-29T11:59:33;1.45;;;1.02;;
20713;SDS011;10518;50.742;4.226;2023-07-29T12:02:10;1.20;;;1.02;;
20713;SDS011;10518;50.742;4.226;2023-07-29T12:04:37;1.17;;;0.90;;
20713;SDS011;10518;50.742;4.226;2023-07-29T12:07:04;0.90;;;0.90;;
20713;SDS011;10518;50.742;4.226;2023-07-29T12:09:30;1.05;;;0.95;;
20713;SDS011;10518;50.742;4.226;2023-07-29T12:11:56;1.70;;;0.75;;
20713;SDS011;10518;50.742;4.226;2023-07-29T12:14:25;1.83;;;1.20;;
20713;SDS011;10518;50.742;4.226;2023-07-29T12:16:52;2.03;;;1.25;;
20713;SDS011;10518;50.742;4.226;2023-07-29T12:19:18;1.95;;;1.30;;
20713;SDS011;10518;50.742;4.226;2023-07-29T12:21:44;3.75;;;1.20;;
20713;SDS011;10518;50.742;4.226;2023-07-29T12:24:13;6.03;;;1.20;;
20713;SDS011;10518;50.742;4.226;2023-07-29T12:26:41;1.30;;;1.10;;
20713;SDS011;10518;50.742;4.226;2023-07-29T12:29:11;1.95;;;1.45;;
20713;SDS011;10518;50.742;4.226;2023-07-29T12:31:38;2.80;;;1.77;;
20713;SDS011;10518;50.742;4.226;2023-07-29T12:34:03;1.77;;;1.50;;
20713;SDS011;10518;50.742;4.226;2023-07-29T12:36:40;2.25;;;1.67;;
20713;SDS011;10518;50.742;4.226;2023-07-29T12:39:20;2.53;;;1.55;;
20713;SDS011;10518;50.742;4.226;2023-07-29T12:41:49;2.50;;;1.75;;
20713;SDS011;10518;50.742;4.226;2023-07-29T12:44:17;2.10;;;1.65;;
20713;SDS011;10518;50.742;4.226;2023-07-29T12:46:43;3.15;;;1.70;;
20713;SDS011;10518;50.742;4.226;2023-07-29T12:49:08;2.10;;;1.50;;
20713;SDS011;10518;50.742;4.226;2023-07-29T12:51:34;2.97;;;1.67;;
20713;SDS011;10518;50.742;4.226;2023-07-29T12:54:01;1.52;;;1.42;;
20713;SDS011;10518;50.742;4.226;2023-07-29T12:56:27;1.75;;;1.27;;
20713;SDS011;10518;50.742;4.226;2023-07-29T12:58:53;2.47;;;1.77;;
20713;SDS011;10518;50.742;4.226;2023-07-29T13:01:19;2.00;;;1.42;;
20713;SDS011;10518;50.742;4.226;2023-07-29T13:03:45;2.20;;;1.25;;
20713;SDS011;10518;50.742;4.226;2023-07-29T13:06:11;2.60;;;1.70;;
20713;SDS011;10518;50.742;4.226;2023-07-29T13:08:36;1.83;;;1.48;;
20713;SDS011;10518;50.742;4.226;2023-07-29T13:11:02;1.70;;;1.20;;
20713;SDS011;10518;50.742;4.226;2023-07-29T13:13:28;1.38;;;1.20;;
20713;SDS011;10518;50.742;4.226;2023-07-29T13:15:54;0.80;;;0.80;;
20713;SDS011;10518;50.742;4.226;2023-07-29T13:18:20;2.28;;;1.00;;
20713;SDS011;10518;50.742;4.226;2023-07-29T13:20:46;7.80;;;1.20;;
20713;SDS011;10518;50.742;4.226;2023-07-29T13:23:12;1.08;;;0.98;;
20713;SDS011;10518;50.742;4.226;2023-07-29T13:25:37;1.27;;;0.90;;
20713;SDS011;10518;50.742;4.226;2023-07-29T13:28:03;1.00;;;0.90;;
20713;SDS011;10518;50.742;4.226;2023-07-29T13:30:29;1.42;;;1.00;;
20713;SDS011;10518;50.742;4.226;2023-07-29T13:32:55;0.68;;;0.68;;
20713;SDS011;10518;50.742;4.226;2023-07-29T13:35:20;1.05;;;0.88;;
20713;SDS011;10518;50.742;4.226;2023-07-29T13:37:46;1.17;;;0.90;;
20713;SDS011;10518;50.742;4.226;2023-07-29T13:40:12;0.73;;;0.73;;
20713;SDS011;10518;50.742;4.226;2023-07-29T13:42:37;1.17;;;1.00;;
20713;SDS011;10518;50.742;4.226;2023-07-29T13:45:03;0.88;;;0.88;;
20713;SDS011;10518;50.742;4.226;2023-07-29T13:47:29;1.10;;;1.00;;
20713;SDS011;10518;50.742;4.226;2023-07-29T13:49:54;0.80;;;0.80;;
20713;SDS011;10518;50.742;4.226;2023-07-29T13:52:20;1.02;;;0.93;;
20713;SDS011;10518;50.742;4.226;2023-07-29T13:54:45;0.80;;;0.70;;
20713;SDS011;10518;50.742;4.226;2023-07-29T13:57:11;0.85;;;0.80;;
20713;SDS011;10518;50.742;4.226;2023-07-29T13:59:37;0.93;;;0.80;;
20713;SDS011;10518;50.742;4.226;2023-07-29T14:02:05;0.82;;;0.77;;
20713;SDS011;10518;50.742;4.226;2023-07-29T14:04:32;1.35;;;1.00;;
20713;SDS011;10518;50.742;4.226;2023-07-29T14:06:58;1.17;;;0.90;;
20713;SDS011;10518;50.742;4.226;2023-07-29T14:09:24;0.85;;;0.70;;
20713;SDS011;10518;50.742;4.226;2023-07-29T14:11:50;0.60;;;0.57;;
20713;SDS011;10518;50.742;4.226;2023-07-29T14:14:16;8.13;;;1.67;;
20713;SDS011;10518;50.742;4.226;2023-07-29T14:16:41;0.68;;;0.63;;
20713;SDS011;10518;50.742;4.226;2023-07-29T14:19:07;0.70;;;0.57;;
20713;SDS011;10518;50.742;4.226;2023-07-29T14:21:33;0.93;;;0.60;;
20713;SDS011;10518;50.742;4.226;2023-07-29T14:23:58;0.75;;;0.70;;
20713;SDS011;10518;50.742;4.226;2023-07-29T14:26:25;0.60;;;0.60;;
20713;SDS011;10518;50.742;4.226;2023-07-29T14:28:50;0.57;;;0.55;;
20713;SDS011;10518;50.742;4.226;2023-07-29T14:31:16;0.77;;;0.75;;
20713;SDS011;10518;50.742;4.226;2023-07-29T14:33:45;0.73;;;0.73;;
20713;SDS011;10518;50.742;4.226;2023-07-29T14:36:10;0.65;;;0.60;;
20713;SDS011;10518;50.742;4.226;2023-07-29T14:38:36;1.40;;;0.70;;
20713;SDS011;10518;50.742;4.226;2023-07-29T14:41:02;0.75;;;0.68;;
20713;SDS011;10518;50.742;4.226;2023-07-29T14:43:28;0.80;;;0.80;;
20713;SDS011;10518;50.742;4.226;2023-07-29T14:45:55;0.73;;;0.65;;
20713;SDS011;10518;50.742;4.226;2023-07-29T14:48:21;0.60;;;0.60;;
20713;SDS011;10518;50.742;4.226;2023-07-29T14:50:46;1.00;;;0.70;;
20713;SDS011;10518;50.742;4.226;2023-07-29T14:53:12;0.50;;;0.50;;
20713;SDS011;10518;50.742;4.226;2023-07-29T14:55:38;1.00;;;0.75;;
20713;SDS011;10518;50.742;4.226;2023-07-29T14:58:03;0.70;;;0.70;;
20713;SDS011;10518;50.742;4.226;2023-07-29T15:00:29;0.88;;;0.70;;
20713;SDS011;10518;50.742;4.226;2023-07-29T15:02:55;0.60;;;0.60;;
20713;SDS011;10518;50.742;4.226;2023-07-29T15:05:20;0.50;;;0.50;;
20713;SDS011;10518;50.742;4.226;2023-07-29T15:07:46;0.77;;;0.70;;
20713;SDS011;10518;50.742;4.226;2023-07-29T15:10:14;0.77;;;0.68;;
20713;SDS011;10518;50.742;4.226;2023-07-29T15:12:40;0.60;;;0.50;;